createdAt,value
2019-04-28T00:01:18.508Z,12.40
2019-04-28T00:03:47.976Z,12.23
2019-04-28T00:06:17.346Z,12.70
2019-04-28T00:08:46.889Z,15.10
2019-04-28T00:11:16.426Z,9.87
2019-04-28T00:13:45.961Z,10.43
2019-04-28T00:16:15.343Z,13.63
2019-04-28T00:18:44.826Z,10.47
2019-04-28T00:21:26.733Z,11.53
2019-04-28T00:24:14.293Z,11.20
2019-04-28T00:27:03.666Z,11.13
2019-04-28T00:29:40.269Z,9.27
2019-04-28T00:32:04.941Z,13.53
2019-04-28T00:34:36.070Z,10.90
2019-04-28T00:37:15.512Z,12.03
2019-04-28T00:39:44.946Z,10.77
2019-04-28T00:42:14.421Z,10.73
2019-04-28T00:44:43.894Z,11.70
2019-04-28T00:47:13.323Z,10.97
2019-04-28T00:49:48.883Z,10.33
2019-04-28T00:52:21.991Z,12.37
2019-04-28T00:54:52.672Z,16.07
2019-04-28T00:57:22.943Z,11.37
2019-04-28T00:59:57.998Z,10.93
2019-04-28T01:02:32.042Z,8.87
2019-04-28T01:05:01.928Z,14.67
2019-04-28T01:07:33.015Z,12.83
2019-04-28T01:10:02.779Z,16.27
2019-04-28T01:12:32.206Z,9.07
2019-04-28T01:15:04.543Z,10.13
2019-04-28T01:17:49.949Z,9.10
2019-04-28T01:20:20.576Z,13.23
2019-04-28T01:22:49.950Z,10.90
2019-04-28T01:25:20.316Z,10.03
2019-04-28T01:27:54.323Z,17.03
2019-04-28T01:30:39.969Z,12.70
2019-04-28T01:33:18.356Z,14.93
2019-04-28T01:35:49.384Z,14.17
2019-04-28T01:38:20.451Z,14.43
2019-04-28T01:40:50.078Z,18.17
2019-04-28T01:43:19.735Z,17.73
2019-04-28T01:45:50.228Z,16.07
2019-04-28T01:48:20.009Z,17.17
2019-04-28T01:50:50.026Z,21.63
2019-04-28T01:53:19.970Z,22.80
2019-04-28T01:55:49.666Z,19.80
2019-04-28T01:58:20.431Z,17.83
2019-04-28T02:00:50.621Z,18.47
2019-04-28T02:03:20.668Z,17.43
2019-04-28T02:05:50.311Z,17.50
2019-04-28T02:08:20.382Z,14.13
2019-04-28T02:10:50.269Z,15.17
2019-04-28T02:13:19.984Z,15.17
2019-04-28T02:15:50.114Z,13.13
2019-04-28T02:18:20.002Z,12.67
2019-04-28T02:20:55.748Z,14.03
2019-04-28T02:23:29.878Z,10.43
2019-04-28T02:25:59.757Z,10.53
2019-04-28T02:28:29.689Z,8.43
2019-04-28T02:31:02.100Z,10.73
2019-04-28T02:33:31.536Z,8.97
2019-04-28T02:36:01.608Z,11.80
2019-04-28T02:38:34.216Z,9.60
2019-04-28T02:41:02.428Z,9.70
2019-04-28T02:43:31.905Z,8.33
2019-04-28T02:46:01.641Z,10.57
2019-04-28T02:48:31.255Z,12.83
2019-04-28T02:51:06.285Z,12.17
2019-04-28T02:53:40.885Z,8.07
2019-04-28T02:56:11.270Z,10.03
2019-04-28T02:58:41.540Z,12.77
2019-04-28T03:01:22.045Z,9.77
2019-04-28T03:03:44.718Z,8.80
2019-04-28T03:06:14.291Z,10.63
2019-04-28T03:08:43.684Z,13.10
2019-04-28T03:11:13.225Z,10.57
2019-04-28T03:13:42.758Z,11.27
2019-04-28T03:16:12.278Z,16.33
2019-04-28T03:18:41.712Z,9.57
2019-04-28T03:21:11.540Z,16.00
2019-04-28T03:23:41.193Z,14.63
2019-04-28T03:26:35.414Z,10.93
2019-04-28T03:29:22.314Z,20.07
2019-04-28T03:32:18.407Z,12.03
2019-04-28T03:34:53.703Z,27.33
2019-04-28T03:37:23.911Z,13.33
2019-04-28T03:39:52.624Z,12.10
2019-04-28T03:42:22.252Z,8.53
2019-04-28T03:44:51.861Z,18.63
2019-04-28T03:47:21.672Z,10.17
2019-04-28T03:49:51.269Z,12.23
2019-04-28T03:52:21.557Z,10.17
2019-04-28T03:54:51.359Z,9.07
2019-04-28T03:57:21.935Z,8.43
2019-04-28T03:59:51.690Z,11.73
2019-04-28T04:02:23.604Z,7.37
2019-04-28T04:04:52.947Z,8.30
2019-04-28T04:07:22.641Z,9.60
2019-04-28T04:10:11.595Z,10.60
2019-04-28T04:12:50.963Z,6.60
2019-04-28T04:15:41.955Z,6.83
2019-04-28T04:18:15.892Z,7.30
2019-04-28T04:20:45.290Z,8.97
2019-04-28T04:23:14.907Z,8.03
2019-04-28T04:25:44.440Z,11.43
2019-04-28T04:28:13.912Z,9.53
2019-04-28T04:30:43.302Z,6.97
2019-04-28T04:33:12.800Z,6.60
2019-04-28T04:35:43.762Z,11.27
2019-04-28T04:38:13.580Z,5.93
2019-04-28T04:40:43.011Z,6.43
2019-04-28T04:43:12.519Z,7.17
2019-04-28T04:45:42.078Z,7.30
2019-04-28T04:48:11.780Z,7.93
2019-04-28T04:50:41.414Z,7.73
2019-04-28T04:53:11.215Z,7.13
2019-04-28T04:55:41.107Z,8.43
2019-04-28T04:58:10.904Z,5.57
2019-04-28T05:00:50.897Z,13.17
2019-04-28T05:03:23.235Z,9.70
2019-04-28T05:05:52.627Z,6.17
2019-04-28T05:08:22.054Z,8.67
2019-04-28T05:10:51.571Z,7.87
2019-04-28T05:13:21.093Z,10.33
2019-04-28T05:15:50.764Z,10.23
2019-04-28T05:18:21.678Z,7.13
2019-04-28T05:20:51.190Z,11.47
2019-04-28T05:23:29.750Z,6.13
2019-04-28T05:26:01.618Z,10.93
2019-04-28T05:28:32.451Z,8.07
2019-04-28T05:31:01.663Z,6.23
2019-04-28T05:33:33.930Z,6.70
2019-04-28T05:36:03.177Z,6.53
2019-04-28T05:38:32.905Z,5.97
2019-04-28T05:41:02.872Z,8.70
2019-04-28T05:43:32.657Z,6.67
2019-04-28T05:46:02.087Z,6.83
2019-04-28T05:48:40.791Z,4.87
2019-04-28T05:51:12.515Z,5.80
2019-04-28T05:53:53.496Z,6.23
2019-04-28T05:56:29.969Z,9.47
2019-04-28T05:59:06.784Z,6.13
2019-04-28T06:01:55.190Z,5.10
2019-04-28T06:04:30.460Z,7.13
2019-04-28T06:07:06.221Z,5.00
2019-04-28T06:09:43.909Z,7.23
2019-04-28T06:12:14.666Z,6.53
2019-04-28T06:14:44.095Z,10.47
2019-04-28T06:17:13.654Z,6.43
2019-04-28T06:19:43.092Z,8.53
2019-04-28T06:22:12.480Z,4.83
2019-04-28T06:24:42.010Z,9.23
2019-04-28T06:27:11.490Z,7.70
2019-04-28T06:29:40.940Z,8.50
2019-04-28T06:32:10.378Z,6.07
2019-04-28T06:34:39.822Z,5.70
2019-04-28T06:37:09.289Z,4.17
2019-04-28T06:39:38.754Z,10.23
2019-04-28T06:42:08.121Z,5.13
2019-04-28T06:44:37.539Z,5.47
2019-04-28T06:47:07.053Z,6.27
2019-04-28T06:49:36.463Z,6.10
2019-04-28T06:52:05.997Z,7.70
2019-04-28T06:54:35.493Z,9.27
2019-04-28T06:57:04.857Z,6.67
2019-04-28T06:59:34.285Z,6.50
2019-04-28T07:02:03.812Z,5.67
2019-04-28T07:04:33.220Z,10.97
2019-04-28T07:07:02.598Z,4.03
2019-04-28T07:09:32.382Z,8.97
2019-04-28T07:12:01.854Z,5.80
2019-04-28T07:14:31.258Z,8.60
2019-04-28T07:17:01.110Z,5.40
2019-04-28T07:19:33.458Z,5.60
2019-04-28T07:22:21.867Z,4.17
2019-04-28T07:24:51.278Z,4.27
2019-04-28T07:27:20.663Z,4.73
2019-04-28T07:29:50.138Z,6.30
2019-04-28T07:32:19.643Z,3.00
2019-04-28T07:34:49.065Z,5.80
2019-04-28T07:37:18.807Z,4.40
2019-04-28T07:39:48.232Z,7.53
2019-04-28T07:42:17.593Z,7.33
2019-04-28T07:44:47.057Z,7.97
2019-04-28T07:47:16.563Z,4.50
2019-04-28T07:49:45.972Z,4.27
2019-04-28T07:52:20.979Z,4.17
2019-04-28T07:54:50.407Z,8.27
2019-04-28T07:57:19.989Z,3.60
2019-04-28T07:59:49.448Z,4.73
2019-04-28T08:02:18.905Z,8.67
2019-04-28T08:04:48.323Z,5.70
2019-04-28T08:07:17.860Z,5.97
2019-04-28T08:09:47.257Z,5.53
2019-04-28T08:12:16.797Z,3.63
2019-04-28T08:14:46.263Z,4.93
2019-04-28T08:17:15.720Z,4.27
2019-04-28T08:19:45.152Z,7.23
2019-04-28T08:22:14.703Z,3.00
2019-04-28T08:24:44.121Z,3.93
2019-04-28T08:27:13.562Z,3.60
2019-04-28T08:29:43.031Z,5.13
2019-04-28T08:32:43.778Z,4.53
2019-04-28T08:35:13.763Z,5.57
2019-04-28T08:37:43.177Z,5.70
2019-04-28T08:40:12.697Z,9.33
2019-04-28T08:42:42.362Z,4.10
2019-04-28T08:45:12.704Z,3.57
2019-04-28T08:47:42.087Z,8.90
2019-04-28T08:50:11.912Z,4.17
2019-04-28T08:52:41.328Z,2.73
2019-04-28T08:55:10.755Z,6.00
2019-04-28T08:57:40.326Z,4.03
2019-04-28T09:00:10.459Z,5.50
2019-04-28T09:02:39.879Z,2.50
2019-04-28T09:05:09.445Z,3.00
2019-04-28T09:07:38.929Z,3.83
2019-04-28T09:10:08.523Z,3.83
2019-04-28T09:12:37.928Z,3.87
2019-04-28T09:15:08.386Z,3.20
2019-04-28T09:17:37.955Z,4.00
2019-04-28T09:20:07.530Z,3.07
2019-04-28T09:22:36.999Z,6.30
2019-04-28T09:25:06.916Z,2.23
2019-04-28T09:27:36.422Z,3.20
2019-04-28T09:30:06.221Z,4.37
2019-04-28T09:32:35.653Z,4.30
2019-04-28T09:35:07.472Z,2.47
2019-04-28T09:37:36.846Z,1.63
2019-04-28T09:40:12.131Z,2.90
2019-04-28T09:42:51.705Z,4.00
2019-04-28T09:45:26.631Z,3.27
2019-04-28T09:47:55.994Z,6.47
2019-04-28T09:50:25.413Z,4.53
2019-04-28T09:52:55.005Z,1.70
2019-04-28T09:55:24.412Z,4.43
2019-04-28T09:57:54.893Z,7.65
2019-04-28T10:00:24.543Z,4.43
2019-04-28T10:02:54.153Z,3.50
2019-04-28T10:05:23.558Z,5.33
2019-04-28T10:07:52.946Z,4.00
2019-04-28T10:10:22.390Z,3.97
2019-04-28T10:12:51.820Z,1.73
2019-04-28T10:15:21.785Z,4.33
2019-04-28T10:17:51.244Z,4.05
2019-04-28T10:20:21.683Z,3.15
2019-04-28T10:22:51.087Z,4.30
2019-04-28T10:25:21.258Z,2.90
2019-04-28T10:27:51.834Z,6.70
2019-04-28T10:30:22.445Z,7.08
2019-04-28T10:32:51.848Z,5.42
2019-04-28T10:35:21.419Z,4.97
2019-04-28T10:37:50.989Z,2.47
2019-04-28T10:40:56.097Z,3.23
2019-04-28T10:43:25.505Z,3.93
2019-04-28T10:45:55.209Z,3.40
2019-04-28T10:48:24.879Z,5.37
2019-04-28T10:50:54.290Z,3.50
2019-04-28T10:53:23.646Z,5.10
2019-04-28T10:55:53.120Z,2.83
2019-04-28T10:58:22.625Z,3.83
2019-04-28T11:00:51.985Z,3.17
2019-04-28T11:03:21.348Z,2.67
2019-04-28T11:05:50.869Z,3.67
2019-04-28T11:08:34.284Z,1.15
2019-04-28T11:11:10.942Z,4.93
2019-04-28T11:13:40.319Z,1.55
2019-04-28T11:16:09.786Z,4.00
2019-04-28T11:18:39.287Z,3.23
2019-04-28T11:21:08.679Z,2.33
2019-04-28T11:23:38.070Z,1.43
2019-04-28T11:26:07.589Z,2.63
2019-04-28T11:28:37.919Z,3.30
2019-04-28T11:31:07.707Z,3.63
2019-04-28T11:33:49.645Z,3.23
2019-04-28T11:36:20.634Z,4.03
2019-04-28T11:38:50.137Z,2.27
2019-04-28T11:41:19.684Z,2.57
2019-04-28T11:43:49.175Z,5.97
2019-04-28T11:46:20.195Z,2.85
2019-04-28T11:48:49.590Z,2.77
2019-04-28T11:51:19.066Z,4.58
2019-04-28T11:53:48.551Z,5.33
2019-04-28T11:56:17.976Z,4.43
2019-04-28T11:58:47.337Z,2.50
2019-04-28T12:01:17.041Z,3.87
2019-04-28T12:03:48.156Z,4.40
2019-04-28T12:06:17.527Z,7.40
2019-04-28T12:08:48.614Z,1.98
2019-04-28T12:11:27.881Z,2.75
2019-04-28T12:14:28.252Z,2.53
2019-04-28T12:17:10.093Z,2.30
2019-04-28T12:19:48.648Z,4.42
2019-04-28T12:22:18.017Z,4.20
2019-04-28T12:24:47.394Z,2.98
2019-04-28T12:27:16.900Z,2.87
2019-04-28T12:29:46.413Z,4.42
2019-04-28T12:32:15.808Z,7.85
2019-04-28T12:34:45.233Z,2.47
2019-04-28T12:37:14.797Z,2.08
2019-04-28T12:39:44.306Z,4.22
2019-04-28T12:42:13.713Z,5.87
2019-04-28T12:44:43.093Z,4.75
2019-04-28T12:47:12.561Z,3.20
2019-04-28T12:50:07.068Z,3.33
2019-04-28T12:52:36.432Z,8.78
2019-04-28T12:55:06.698Z,13.62
2019-04-28T12:57:36.204Z,7.12
2019-04-28T13:00:25.115Z,4.08
2019-04-28T13:03:16.792Z,11.68
2019-04-28T13:05:46.589Z,12.73
2019-04-28T13:08:15.989Z,20.60
2019-04-28T13:10:45.417Z,5.95
2019-04-28T13:13:14.878Z,6.78
2019-04-28T13:15:44.354Z,6.67
2019-04-28T13:18:13.756Z,10.93
2019-04-28T13:20:43.124Z,32.90
2019-04-28T13:23:12.600Z,7.70
2019-04-28T13:25:42.237Z,11.40
2019-04-28T13:28:11.614Z,6.30
2019-04-28T13:30:40.975Z,3.30
2019-04-28T13:33:10.499Z,4.33
2019-04-28T13:35:39.868Z,3.65
2019-04-28T13:38:09.339Z,4.22
2019-04-28T13:40:40.071Z,10.72
2019-04-28T13:43:09.629Z,4.28
2019-04-28T13:45:38.989Z,3.27
2019-04-28T13:48:08.690Z,4.17
2019-04-28T13:50:39.038Z,6.70
2019-04-28T13:53:09.148Z,2.98
2019-04-28T13:55:57.482Z,5.83
2019-04-28T13:58:29.902Z,2.85
2019-04-28T14:01:24.149Z,3.05
2019-04-28T14:04:24.925Z,5.20
2019-04-28T14:06:58.249Z,7.87
2019-04-28T14:09:27.720Z,4.47
2019-04-28T14:11:57.257Z,1.70
2019-04-28T14:14:26.670Z,3.22
2019-04-28T14:16:56.100Z,4.40
2019-04-28T14:19:25.479Z,3.10
2019-04-28T14:21:54.898Z,2.62
2019-04-28T14:24:24.488Z,5.40
2019-04-28T14:26:54.059Z,2.50
2019-04-28T14:29:23.988Z,1.30
2019-04-28T14:31:53.351Z,3.80
2019-04-28T14:34:22.843Z,6.95
2019-04-28T14:36:52.431Z,4.90
2019-04-28T14:39:21.870Z,4.12
2019-04-28T14:41:52.583Z,2.72
2019-04-28T14:44:22.156Z,2.20
2019-04-28T14:46:51.637Z,5.95
2019-04-28T14:49:21.074Z,6.25
2019-04-28T14:51:50.478Z,4.70
2019-04-28T14:54:20.019Z,9.95
2019-04-28T14:56:49.444Z,3.02
2019-04-28T14:59:18.955Z,2.15
2019-04-28T15:02:07.366Z,7.10
2019-04-28T15:05:13.974Z,3.58
2019-04-28T15:08:11.569Z,5.45
2019-04-28T15:11:00.022Z,3.47
2019-04-28T15:13:29.548Z,3.92
2019-04-28T15:15:59.016Z,2.42
2019-04-28T15:18:28.620Z,3.37
2019-04-28T15:20:58.211Z,3.58
2019-04-28T15:23:27.697Z,3.55
2019-04-28T15:25:57.087Z,3.13
2019-04-28T15:28:26.468Z,3.62
2019-04-28T15:30:55.945Z,2.42
2019-04-28T15:33:25.494Z,2.95
2019-04-28T15:35:54.869Z,2.70
2019-04-28T15:38:24.327Z,3.57
2019-04-28T15:40:54.342Z,5.42
2019-04-28T15:43:23.772Z,1.57
2019-04-28T15:45:53.351Z,4.90
2019-04-28T15:48:22.880Z,3.15
2019-04-28T15:50:52.254Z,4.33
2019-04-28T15:53:21.628Z,2.30
2019-04-28T15:55:58.347Z,2.53
2019-04-28T15:58:35.486Z,3.35
2019-04-28T16:01:05.342Z,3.27
2019-04-28T16:03:34.701Z,2.80
2019-04-28T16:06:04.272Z,3.47
2019-04-28T16:08:33.783Z,4.42
2019-04-28T16:11:03.185Z,4.17
2019-04-28T16:13:32.584Z,2.50
2019-04-28T16:16:02.210Z,2.23
2019-04-28T16:18:31.673Z,5.53
2019-04-28T16:21:01.845Z,2.83
2019-04-28T16:23:31.293Z,4.30
2019-04-28T16:26:00.852Z,3.20
2019-04-28T16:28:30.342Z,2.63
2019-04-28T16:31:00.230Z,3.37
2019-04-28T16:33:30.043Z,2.77
2019-04-28T16:35:59.581Z,3.90
2019-04-28T16:38:29.117Z,5.43
2019-04-28T16:41:09.107Z,3.00
2019-04-28T16:44:12.371Z,4.27
2019-04-28T16:46:41.854Z,5.27
2019-04-28T16:49:11.321Z,4.70
2019-04-28T16:51:40.718Z,3.50
2019-04-28T16:54:10.070Z,3.87
2019-04-28T16:56:59.351Z,5.90
2019-04-28T16:59:57.071Z,4.53
2019-04-28T17:02:31.783Z,3.17
2019-04-28T17:05:01.627Z,4.60
2019-04-28T17:07:30.999Z,6.53
2019-04-28T17:10:00.714Z,6.57
2019-04-28T17:12:30.222Z,6.43
2019-04-28T17:14:59.702Z,5.30
2019-04-28T17:17:29.118Z,5.13
2019-04-28T17:19:58.497Z,4.77
2019-04-28T17:22:28.606Z,5.27
2019-04-28T17:24:58.072Z,5.37
2019-04-28T17:27:27.432Z,7.30
2019-04-28T17:29:56.805Z,6.23
2019-04-28T17:32:26.305Z,3.70
2019-04-28T17:34:55.767Z,5.93
2019-04-28T17:37:25.133Z,9.67
2019-04-28T17:39:55.136Z,7.07
2019-04-28T17:42:24.575Z,5.10
2019-04-28T17:44:54.284Z,6.43
2019-04-28T17:47:24.593Z,7.03
2019-04-28T17:49:54.077Z,7.23
2019-04-28T17:52:23.454Z,5.33
2019-04-28T17:54:52.863Z,7.00
2019-04-28T17:57:22.337Z,4.27
2019-04-28T17:59:53.570Z,6.00
2019-04-28T18:02:40.508Z,4.27
2019-04-28T18:05:21.511Z,3.93
2019-04-28T18:07:56.462Z,4.10
2019-04-28T18:10:25.303Z,2.63
2019-04-28T18:13:00.889Z,3.90
2019-04-28T18:15:43.332Z,2.87
2019-04-28T18:18:29.977Z,4.73
2019-04-28T18:20:59.406Z,5.20
2019-04-28T18:23:28.948Z,3.07
2019-04-28T18:25:58.427Z,5.00
2019-04-28T18:28:27.838Z,2.90
2019-04-28T18:31:22.016Z,15.33
2019-04-28T18:34:18.471Z,4.37
2019-04-28T18:36:55.039Z,4.47
2019-04-28T18:39:43.387Z,4.17
2019-04-28T18:42:23.785Z,3.73
2019-04-28T18:44:53.369Z,5.87
2019-04-28T18:47:22.942Z,4.33
2019-04-28T18:49:52.312Z,2.10
2019-04-28T18:52:21.695Z,3.17
2019-04-28T18:54:51.210Z,4.67
2019-04-28T18:57:20.760Z,2.90
2019-04-28T18:59:50.202Z,4.93
2019-04-28T19:02:38.544Z,3.50
2019-04-28T19:05:10.584Z,5.10
2019-04-28T19:08:15.286Z,3.20
2019-04-28T19:11:03.660Z,5.13
2019-04-28T19:13:35.774Z,4.27
2019-04-28T19:16:22.927Z,3.03
2019-04-28T19:18:53.396Z,4.03
2019-04-28T19:21:22.877Z,2.80
2019-04-28T19:23:54.162Z,3.73
2019-04-28T19:26:23.478Z,3.63
2019-04-28T19:28:52.847Z,4.90
2019-04-28T19:31:22.363Z,4.37
2019-04-28T19:33:51.839Z,3.33
2019-04-28T19:36:21.219Z,4.97
2019-04-28T19:39:02.486Z,3.63
2019-04-28T19:41:21.943Z,4.67
2019-04-28T19:43:51.419Z,5.70
2019-04-28T19:46:20.951Z,3.97
2019-04-28T19:48:50.406Z,4.93
2019-04-28T19:51:31.186Z,4.60
2019-04-28T19:53:51.390Z,5.13
2019-04-28T19:56:30.611Z,5.07
2019-04-28T19:59:22.578Z,7.97
2019-04-28T20:01:51.945Z,3.87
2019-04-28T20:04:21.322Z,3.07
2019-04-28T20:06:50.838Z,5.13
2019-04-28T20:09:20.349Z,5.13
2019-04-28T20:11:49.793Z,6.50
2019-04-28T20:14:19.200Z,6.43
2019-04-28T20:16:48.684Z,5.57
2019-04-28T20:19:18.166Z,5.40
2019-04-28T20:21:47.567Z,6.20
2019-04-28T20:24:19.440Z,4.80
2019-04-28T20:26:48.150Z,2.77
2019-04-28T20:29:17.564Z,3.87
2019-04-28T20:31:48.115Z,4.37
2019-04-28T20:34:17.596Z,4.40
2019-04-28T20:37:01.906Z,5.00
2019-04-28T20:39:32.237Z,5.20
2019-04-28T20:42:19.526Z,6.37
2019-04-28T20:44:49.554Z,6.50
2019-04-28T20:47:18.912Z,6.23
2019-04-28T20:49:48.346Z,6.63
2019-04-28T20:52:17.827Z,4.37
2019-04-28T20:54:47.392Z,5.40
2019-04-28T20:57:17.176Z,5.03
2019-04-28T20:59:46.562Z,7.17
2019-04-28T21:02:16.049Z,5.70
2019-04-28T21:04:45.457Z,6.97
2019-04-28T21:07:15.436Z,4.60
2019-04-28T21:09:44.924Z,8.10
2019-04-28T21:12:14.331Z,8.90
2019-04-28T21:14:43.694Z,10.17
2019-04-28T21:17:13.180Z,13.60
2019-04-28T21:19:42.687Z,6.27
2019-04-28T21:22:12.060Z,5.30
2019-04-28T21:24:41.428Z,6.07
2019-04-28T21:27:11.217Z,6.27
2019-04-28T21:29:40.779Z,5.50
2019-04-28T21:32:10.160Z,6.00
2019-04-28T21:34:39.695Z,4.17
2019-04-28T21:37:09.181Z,8.80
2019-04-28T21:39:38.654Z,5.93
2019-04-28T21:42:10.932Z,5.00
2019-04-28T21:44:52.982Z,6.20
2019-04-28T21:47:25.485Z,10.37
2019-04-28T21:49:55.055Z,5.73
2019-04-28T21:52:24.411Z,5.33
2019-04-28T21:54:53.812Z,8.07
2019-04-28T21:57:23.288Z,6.20
2019-04-28T21:59:52.771Z,5.57
2019-04-28T22:02:22.262Z,10.43
2019-04-28T22:04:51.617Z,4.73
2019-04-28T22:07:22.158Z,3.70
2019-04-28T22:09:51.673Z,9.17
2019-04-28T22:12:21.035Z,7.20
2019-04-28T22:14:50.409Z,9.80
2019-04-28T22:17:20.047Z,7.83
2019-04-28T22:19:49.553Z,7.90
2019-04-28T22:22:18.928Z,5.50
2019-04-28T22:25:11.492Z,9.20
2019-04-28T22:27:42.122Z,4.70
2019-04-28T22:30:11.856Z,4.50
2019-04-28T22:32:41.363Z,5.40
2019-04-28T22:35:11.032Z,4.33
2019-04-28T22:37:40.396Z,5.70
2019-04-28T22:40:10.017Z,6.83
2019-04-28T22:42:39.488Z,6.37
2019-04-28T22:45:10.209Z,6.23
2019-04-28T22:47:39.606Z,6.43
2019-04-28T22:50:23.437Z,9.93
2019-04-28T22:52:53.065Z,8.03
2019-04-28T22:55:24.129Z,8.60
2019-04-28T22:58:14.743Z,8.87
2019-04-28T23:00:56.362Z,5.77
2019-04-28T23:03:43.575Z,5.70
2019-04-28T23:06:14.205Z,4.33
2019-04-28T23:08:43.673Z,7.33
2019-04-28T23:11:13.225Z,6.63
2019-04-28T23:13:42.577Z,6.23
2019-04-28T23:16:11.942Z,10.00
2019-04-28T23:18:41.454Z,9.27
2019-04-28T23:21:33.305Z,10.77
2019-04-28T23:24:02.717Z,8.77
2019-04-28T23:26:32.063Z,5.83
2019-04-28T23:29:01.524Z,9.57
2019-04-28T23:31:31.126Z,8.40
2019-04-28T23:34:00.491Z,7.43
2019-04-28T23:36:29.844Z,5.23
2019-04-28T23:38:59.367Z,8.10
2019-04-28T23:41:34.755Z,6.50
2019-04-28T23:44:04.182Z,11.07
2019-04-28T23:46:51.344Z,8.57
2019-04-28T23:49:20.761Z,8.97
2019-04-28T23:52:14.945Z,13.10
2019-04-28T23:54:46.563Z,10.43
2019-04-28T23:57:16.123Z,8.30
2019-04-28T23:59:45.484Z,7.37
